Arbuckle, CA

10:28 PM PST on December 05, 2019 (GMT -0800)
Jeffreys Ranch Pecans, Lonestar Rd, 1.5mi. S. of Abel Rd., 1.5mi. NW of Colusa Wildlife Refuge Check-in Station | | Change Station

Elev 62 ft 39.12 °N, 122.07 °W | Updated 15 seconds ago

Overcast
Overcast
53.1 °F
Feels Like 53.1 °F
N
1.79
Wind Variable Wind from WSW
Gusts 2.2 mph

Today
High -- | Low -- °F
--% Chance of Precip.
Yesterday
High -- | Low -- °F
Precip. -- in
Pressure 30.08 in
Visibility 3.0 miles
Clouds Overcast 6000 ft
Dew Point 53 °F
Humidity 99%
Rainfall 0.01 in
Snow Depth Not available.
7:11 AM 4:45 PM
Waxing Gibbous, 68% visible
METAR KMYV 060553Z AUTO 00000KT 3SM BR OVC060 11/11 A3006 RMK AO2 SLP184 T01110106 10144 20106 53001
Pressure 30.08 in
Visibility 3.0 miles
Clouds Overcast 6000 ft
Dew Point 53 °F
Humidity 99%
Rainfall 0.01 in
Snow Depth Not available.
7:11 AM 4:45 PM
Waxing Gibbous, 68% visible
METAR KMYV 060553Z AUTO 00000KT 3SM BR OVC060 11/11 A3006 RMK AO2 SLP184 T01110106 10144 20106 53001

Get Severe Weather Alerts

Thanks for signing up!

Be on the lookout for a verification email in your inbox.

You'll start receiving the daily forecast at 6 AM.

×

10-Day Weather Forecast

Almanac

Astronomy

Dec. 05, 2019 Rise Set
Actual Time
Civil Twilight
Nautical Twilight
Astronomical Twilight
Moon
Length of Visible Light
Length of Day
Tomorrow will be .
, % of the Moon is Illuminated

Today's Extremes

State Highs State Lows

Community

WunderPhotos

Category 6

Welcome to Category 6. This is the collective home for Weather Underground's featured writeups by Dr. Jeff Masters (right), Bob Henson (left), Chris Burt, and other regular contributors.

Nearby

Air Quality

  Air Quality AQ Index Pollutant
Not available.

Snow Depth

Station Depth Elevation

Earthquake Activity

City Distance Mag. Time & Date
Minimum magnitude displayed is 2.5.

Coastal Water Temperatures

Place Temperature

Stations

Nearby Weather Stations

Station Location Temp. Windchill Dew Point Humidity Wind Precip. Elev Updated Type
                   

Watches & Warnings

There are currently no watches in effect.